createdAt,value
2019-02-15T00:01:43.079Z,102083.36
2019-02-15T00:06:46.562Z,102080.98
2019-02-15T00:11:50.050Z,102083.17
2019-02-15T00:16:53.524Z,102085.95
2019-02-15T00:21:57.015Z,102086.91
2019-02-15T00:27:00.513Z,102086.10
2019-02-15T00:32:03.998Z,102081.14
2019-02-15T00:37:07.488Z,102082.31
2019-02-15T00:42:10.966Z,102086.26
2019-02-15T00:47:21.523Z,102081.51
2019-02-15T00:52:26.651Z,102081.08
2019-02-15T00:57:40.799Z,102083.08
2019-02-15T01:02:48.893Z,102073.38
2019-02-15T01:08:06.035Z,102070.16
2019-02-15T01:13:11.145Z,102073.74
2019-02-15T01:18:14.623Z,102070.16
2019-02-15T01:23:18.090Z,102071.33
2019-02-15T01:28:23.203Z,102079.66
2019-02-15T01:33:44.557Z,102078.64
2019-02-15T01:38:58.311Z,102082.80
2019-02-15T01:44:03.424Z,102078.64
2019-02-15T01:49:06.899Z,102072.88
2019-02-15T01:54:10.363Z,102072.66
2019-02-15T01:59:13.834Z,102074.05
2019-02-15T02:04:17.376Z,102064.95
2019-02-15T02:09:21.322Z,102066.34
2019-02-15T02:14:24.794Z,102059.19
2019-02-15T02:19:28.275Z,102053.42
2019-02-15T02:24:31.746Z,102050.66
2019-02-15T02:29:35.210Z,102049.02
2019-02-15T02:34:38.678Z,102053.98
2019-02-15T02:39:42.146Z,102049.02
2019-02-15T02:44:45.624Z,102051.58
2019-02-15T02:49:49.091Z,102045.23
2019-02-15T02:54:52.569Z,102047.20
2019-02-15T02:59:56.039Z,102051.36
2019-02-15T03:04:59.519Z,102048.59
2019-02-15T03:10:03.349Z,102044.21
2019-02-15T03:15:07.870Z,102047.57
2019-02-15T03:20:11.332Z,102049.36
2019-02-15T03:25:14.795Z,102047.38
2019-02-15T03:30:18.267Z,102046.58
2019-02-15T03:35:21.730Z,102059.06
2019-02-15T03:40:29.833Z,102052.50
2019-02-15T03:45:33.263Z,102060.23
2019-02-15T03:50:36.750Z,102057.24
2019-02-15T03:55:40.206Z,102052.06
2019-02-15T04:00:43.676Z,102049.51
2019-02-15T04:05:47.150Z,102054.25
2019-02-15T04:10:50.627Z,102052.87
2019-02-15T04:15:54.090Z,102051.27
2019-02-15T04:20:57.565Z,102055.42
2019-02-15T04:26:01.040Z,102050.47
2019-02-15T04:31:04.517Z,102048.27
2019-02-15T04:36:07.993Z,102048.06
2019-02-15T04:41:11.454Z,102045.28
2019-02-15T04:46:14.922Z,102045.50
2019-02-15T04:51:18.447Z,102039.00
2019-02-15T04:56:21.873Z,102042.95
2019-02-15T05:01:25.338Z,102033.82
2019-02-15T05:06:28.810Z,102033.61
2019-02-15T05:11:32.278Z,102033.61
2019-02-15T05:16:35.753Z,102029.27
2019-02-15T05:21:39.222Z,102028.06
2019-02-15T05:26:42.697Z,102034.19
2019-02-15T05:31:46.173Z,102034.01
2019-02-15T05:36:49.646Z,102036.78
2019-02-15T05:41:53.155Z,102032.03
2019-02-15T05:46:56.590Z,102033.20
2019-02-15T05:52:00.065Z,102035.17
2019-02-15T05:57:03.542Z,102026.86
2019-02-15T06:02:07.012Z,102034.16
2019-02-15T06:07:10.478Z,102039.34
2019-02-15T06:12:13.950Z,102030.00
2019-02-15T06:17:17.425Z,102031.97
2019-02-15T06:22:20.898Z,102030.59
2019-02-15T06:27:24.371Z,102036.13
2019-02-15T06:32:27.846Z,102038.10
2019-02-15T06:37:31.317Z,102023.80
2019-02-15T06:42:34.783Z,102033.52
2019-02-15T06:47:38.258Z,102039.64
2019-02-15T06:52:41.721Z,102042.23
2019-02-15T06:57:45.188Z,102054.70
2019-02-15T07:02:56.127Z,102054.70
2019-02-15T07:07:59.601Z,102045.27
2019-02-15T07:13:03.075Z,102045.27
2019-02-15T07:18:06.552Z,102060.04
2019-02-15T07:23:10.027Z,102051.72
2019-02-15T07:28:13.497Z,102061.67
2019-02-15T07:33:16.976Z,102060.72
2019-02-15T07:38:20.440Z,102070.09
2019-02-15T07:43:23.913Z,102068.77
2019-02-15T07:48:27.388Z,102064.83
2019-02-15T07:53:30.863Z,102060.34
2019-02-15T07:58:34.332Z,102063.41
2019-02-15T08:03:37.804Z,102061.36
2019-02-15T08:08:41.266Z,102068.12
2019-02-15T08:13:44.736Z,102057.58
2019-02-15T08:18:48.216Z,102062.00
2019-02-15T08:23:51.690Z,102062.00
2019-02-15T08:28:55.160Z,102061.66
2019-02-15T08:33:58.641Z,102068.96
2019-02-15T08:39:02.116Z,102067.37
2019-02-15T08:44:05.593Z,102063.50
2019-02-15T08:49:09.067Z,102065.46
2019-02-15T08:54:12.538Z,102063.05
2019-02-15T08:59:16.011Z,102065.95
2019-02-15T09:04:19.482Z,102063.89
2019-02-15T09:09:22.952Z,102065.77
2019-02-15T09:14:26.419Z,102064.28
2019-02-15T09:19:29.892Z,102062.39
2019-02-15T09:24:33.358Z,102069.58
2019-02-15T09:29:36.830Z,102068.68
2019-02-15T09:34:40.310Z,102066.02
2019-02-15T09:39:43.783Z,102062.70
2019-02-15T09:44:47.254Z,102064.16
2019-02-15T09:49:50.727Z,102064.06
2019-02-15T09:54:54.205Z,102060.78
2019-02-15T09:59:57.666Z,102065.20
2019-02-15T10:05:01.144Z,102059.70
2019-02-15T10:10:09.013Z,102050.43
2019-02-15T10:15:12.710Z,102048.31
2019-02-15T10:20:16.186Z,102048.72
2019-02-15T10:25:19.656Z,102045.36
2019-02-15T10:30:23.130Z,102045.80
2019-02-15T10:35:26.607Z,102044.63
2019-02-15T10:40:30.080Z,102037.33
2019-02-15T10:45:33.551Z,102035.00
2019-02-15T10:50:37.022Z,102036.38
2019-02-15T10:55:40.493Z,102034.78
2019-02-15T11:00:43.970Z,102034.23
2019-02-15T11:05:47.438Z,102025.77
2019-02-15T11:10:50.909Z,102022.63
2019-02-15T11:15:54.378Z,102023.02
2019-02-15T11:20:57.851Z,102020.25
2019-02-15T11:26:01.335Z,102019.30
2019-02-15T11:31:04.806Z,102017.91
2019-02-15T11:36:08.285Z,102012.00
2019-02-15T11:41:11.763Z,101994.56
2019-02-15T11:46:15.223Z,101997.15
2019-02-15T11:51:18.703Z,101993.20
2019-02-15T11:56:22.173Z,101997.58
2019-02-15T12:01:25.642Z,101987.51
2019-02-15T12:06:29.120Z,101981.59
2019-02-15T12:11:32.767Z,101983.78
2019-02-15T12:16:38.130Z,101984.98
2019-02-15T12:21:41.434Z,101970.31
2019-02-15T12:26:44.908Z,101965.41
2019-02-15T12:31:48.382Z,101965.41
2019-02-15T12:36:51.851Z,101955.34
2019-02-15T12:41:55.325Z,101952.20
2019-02-15T12:46:58.786Z,101942.67
2019-02-15T12:52:02.259Z,101944.70
2019-02-15T12:57:05.727Z,101927.27
2019-02-15T13:02:09.219Z,101920.99
2019-02-15T13:07:12.662Z,101910.81
2019-02-15T13:12:16.134Z,101911.45
2019-02-15T13:17:24.632Z,101910.22
2019-02-15T13:22:24.803Z,101901.36
2019-02-15T13:27:28.275Z,101894.02
2019-02-15T13:32:31.744Z,101887.52
2019-02-15T13:37:44.583Z,101882.41
2019-02-15T13:42:48.058Z,101880.04
2019-02-15T13:47:51.538Z,101878.03
2019-02-15T13:52:55.014Z,101872.91
2019-02-15T13:57:58.491Z,101867.78
2019-02-15T14:03:01.970Z,101859.67
2019-02-15T14:08:05.444Z,101856.90
2019-02-15T14:13:08.924Z,101855.72
2019-02-15T14:18:12.407Z,101846.99
2019-02-15T14:23:15.903Z,101846.99
2019-02-15T14:28:19.403Z,101842.83
2019-02-15T14:33:22.908Z,101838.67
2019-02-15T14:38:26.398Z,101835.52
2019-02-15T14:43:29.885Z,101842.66
2019-02-15T14:48:33.374Z,101827.61
2019-02-15T14:53:36.866Z,101823.45
2019-02-15T14:58:40.381Z,101817.31
2019-02-15T15:03:43.866Z,101816.94
2019-02-15T15:08:47.349Z,101805.42
2019-02-15T15:13:50.830Z,101803.86
2019-02-15T15:18:54.308Z,101791.75
2019-02-15T15:23:57.786Z,101785.77
2019-02-15T15:29:03.296Z,101774.84
2019-02-15T15:34:06.772Z,101772.66
2019-02-15T15:39:13.146Z,101767.73
2019-02-15T15:44:16.650Z,101779.41
2019-02-15T15:49:20.137Z,101764.80
2019-02-15T15:54:23.632Z,101761.44
2019-02-15T15:59:27.131Z,101766.98
2019-02-15T16:04:30.627Z,101749.34
2019-02-15T16:09:34.124Z,101749.16
2019-02-15T16:14:37.617Z,101748.58
2019-02-15T16:19:49.417Z,101761.48
2019-02-15T16:24:46.318Z,101743.39
2019-02-15T16:29:49.811Z,101743.39
2019-02-15T16:34:53.286Z,101755.52
2019-02-15T16:39:56.764Z,101762.45
2019-02-15T16:45:00.399Z,101770.78
2019-02-15T16:50:03.897Z,101768.80
2019-02-15T16:55:12.871Z,101768.59
2019-02-15T17:00:14.958Z,101760.27
2019-02-15T17:05:18.431Z,101761.44
2019-02-15T17:10:21.983Z,101758.67
2019-02-15T17:15:25.465Z,101758.87
2019-02-15T17:20:28.944Z,101759.89
2019-02-15T17:25:32.418Z,101753.75
2019-02-15T17:30:35.898Z,101756.52
2019-02-15T17:35:39.370Z,101749.80
2019-02-15T17:40:42.851Z,101745.81
2019-02-15T17:45:46.322Z,101748.00
2019-02-15T17:50:49.803Z,101739.67
2019-02-15T17:55:53.287Z,101742.27
2019-02-15T18:00:57.140Z,101738.11
2019-02-15T18:06:00.616Z,101733.53
2019-02-15T18:11:04.085Z,101741.27
2019-02-15T18:16:07.570Z,101738.70
2019-02-15T18:21:11.048Z,101733.15
2019-02-15T18:26:14.531Z,101737.91
2019-02-15T18:31:18.007Z,101732.56
2019-02-15T18:36:21.482Z,101733.95
2019-02-15T18:41:24.958Z,101727.01
2019-02-15T18:46:28.437Z,101723.44
2019-02-15T18:51:31.920Z,101722.05
2019-02-15T18:56:35.393Z,101732.77
2019-02-15T19:01:38.900Z,101722.84
2019-02-15T19:06:42.378Z,101723.64
2019-02-15T19:11:45.854Z,101725.03
2019-02-15T19:16:49.331Z,101726.80
2019-02-15T19:21:52.807Z,101720.66
2019-02-15T19:26:56.283Z,101710.95
2019-02-15T19:31:59.764Z,101709.56
2019-02-15T19:37:03.238Z,101704.59
2019-02-15T19:42:09.971Z,101701.44
2019-02-15T19:47:13.473Z,101703.80
2019-02-15T19:52:16.963Z,101701.23
2019-02-15T19:57:20.456Z,101698.66
2019-02-15T20:02:23.948Z,101695.47
2019-02-15T20:07:27.443Z,101692.11
2019-02-15T20:12:30.934Z,101694.29
2019-02-15T20:17:34.427Z,101692.91
2019-02-15T20:22:37.914Z,101681.21
2019-02-15T20:27:41.408Z,101684.58
2019-02-15T20:32:44.900Z,101677.43
2019-02-15T20:37:48.406Z,101679.41
2019-02-15T20:42:51.907Z,101681.39
2019-02-15T20:47:55.402Z,101674.27
2019-02-15T20:52:58.898Z,101675.45
2019-02-15T20:58:02.391Z,101675.45
2019-02-15T21:03:05.882Z,101674.83
2019-02-15T21:08:09.376Z,101665.11
2019-02-15T21:13:20.204Z,101657.16
2019-02-15T21:18:18.084Z,101651.41
2019-02-15T21:23:21.580Z,101643.50
2019-02-15T21:28:25.068Z,101640.30
2019-02-15T21:33:28.559Z,101636.73
2019-02-15T21:38:32.056Z,101637.32
2019-02-15T21:43:35.556Z,101635.52
2019-02-15T21:48:39.050Z,101637.49
2019-02-15T21:53:42.545Z,101627.60
2019-02-15T21:58:46.039Z,101623.83
2019-02-15T22:03:49.534Z,101619.66
2019-02-15T22:08:53.018Z,101619.45
2019-02-15T22:13:56.507Z,101618.83
2019-02-15T22:19:00.002Z,101606.93
2019-02-15T22:24:03.494Z,101608.11
2019-02-15T22:29:06.986Z,101602.94
2019-02-15T22:34:10.484Z,101597.59
2019-02-15T22:39:13.979Z,101594.61
2019-02-15T22:44:17.466Z,101596.97
2019-02-15T22:49:21.021Z,101596.77
2019-02-15T22:54:24.539Z,101595.76
2019-02-15T22:59:28.029Z,101599.71
2019-02-15T23:04:31.523Z,101589.83
2019-02-15T23:09:35.093Z,101589.62
2019-02-15T23:14:38.592Z,101591.94
2019-02-15T23:19:42.082Z,101590.55
2019-02-15T23:24:45.570Z,101590.94
2019-02-15T23:29:49.058Z,101593.12
2019-02-15T23:34:52.553Z,101585.18
2019-02-15T23:39:56.051Z,101583.62
2019-02-15T23:44:59.541Z,101573.70
2019-02-15T23:50:03.293Z,101570.72
2019-02-15T23:55:06.951Z,101564.97
